sensor_id;sensor_type;location;lat;lon;timestamp;P1;durP1;ratioP1;P2;durP2;ratioP2
75506;SDS011;64086;43.220;27.878;2023-11-19T00:02:15;2.58;;;1.25;;
75506;SDS011;64086;43.220;27.878;2023-11-19T00:04:40;2.83;;;1.20;;
75506;SDS011;64086;43.220;27.878;2023-11-19T00:07:06;2.97;;;1.50;;
75506;SDS011;64086;43.220;27.878;2023-11-19T00:09:34;2.75;;;1.25;;
75506;SDS011;64086;43.220;27.878;2023-11-19T00:12:02;2.67;;;1.30;;
75506;SDS011;64086;43.220;27.878;2023-11-19T00:14:30;3.58;;;1.58;;
75506;SDS011;64086;43.220;27.878;2023-11-19T00:16:56;2.75;;;1.27;;
75506;SDS011;64086;43.220;27.878;2023-11-19T00:19:21;3.47;;;1.48;;
75506;SDS011;64086;43.220;27.878;2023-11-19T00:21:47;3.15;;;1.33;;
75506;SDS011;64086;43.220;27.878;2023-11-19T00:24:12;3.92;;;1.70;;
75506;SDS011;64086;43.220;27.878;2023-11-19T00:26:41;2.88;;;1.33;;
75506;SDS011;64086;43.220;27.878;2023-11-19T00:29:07;2.83;;;1.50;;
75506;SDS011;64086;43.220;27.878;2023-11-19T00:31:32;2.70;;;1.23;;
75506;SDS011;64086;43.220;27.878;2023-11-19T00:33:58;2.75;;;1.40;;
75506;SDS011;64086;43.220;27.878;2023-11-19T00:36:23;2.80;;;1.30;;
75506;SDS011;64086;43.220;27.878;2023-11-19T00:38:49;3.35;;;1.70;;
75506;SDS011;64086;43.220;27.878;2023-11-19T00:41:15;3.83;;;1.55;;
75506;SDS011;64086;43.220;27.878;2023-11-19T00:43:41;3.25;;;1.65;;
75506;SDS011;64086;43.220;27.878;2023-11-19T00:46:07;5.10;;;1.98;;
75506;SDS011;64086;43.220;27.878;2023-11-19T00:48:32;3.85;;;1.92;;
75506;SDS011;64086;43.220;27.878;2023-11-19T00:50:58;3.50;;;2.03;;
75506;SDS011;64086;43.220;27.878;2023-11-19T00:53:23;4.40;;;2.10;;
75506;SDS011;64086;43.220;27.878;2023-11-19T00:55:49;3.40;;;2.05;;
75506;SDS011;64086;43.220;27.878;2023-11-19T00:58:14;3.67;;;2.17;;
75506;SDS011;64086;43.220;27.878;2023-11-19T01:00:40;4.05;;;2.40;;
75506;SDS011;64086;43.220;27.878;2023-11-19T01:03:05;4.40;;;2.22;;
75506;SDS011;64086;43.220;27.878;2023-11-19T01:05:32;4.15;;;2.05;;
75506;SDS011;64086;43.220;27.878;2023-11-19T01:07:58;3.60;;;2.05;;
75506;SDS011;64086;43.220;27.878;2023-11-19T01:10:23;4.30;;;2.35;;
75506;SDS011;64086;43.220;27.878;2023-11-19T01:12:49;3.80;;;2.17;;
75506;SDS011;64086;43.220;27.878;2023-11-19T01:15:15;4.72;;;2.38;;
75506;SDS011;64086;43.220;27.878;2023-11-19T01:17:40;4.60;;;2.30;;
75506;SDS011;64086;43.220;27.878;2023-11-19T01:20:06;4.40;;;2.33;;
75506;SDS011;64086;43.220;27.878;2023-11-19T01:22:32;4.53;;;2.60;;
75506;SDS011;64086;43.220;27.878;2023-11-19T01:24:57;4.35;;;2.30;;
75506;SDS011;64086;43.220;27.878;2023-11-19T01:27:25;4.15;;;2.33;;
75506;SDS011;64086;43.220;27.878;2023-11-19T01:29:51;4.85;;;2.90;;
75506;SDS011;64086;43.220;27.878;2023-11-19T01:32:16;4.20;;;2.38;;
75506;SDS011;64086;43.220;27.878;2023-11-19T01:34:42;4.55;;;2.33;;
75506;SDS011;64086;43.220;27.878;2023-11-19T01:37:07;4.47;;;2.55;;
75506;SDS011;64086;43.220;27.878;2023-11-19T01:39:35;4.15;;;2.38;;
75506;SDS011;64086;43.220;27.878;2023-11-19T01:42:01;3.90;;;2.42;;
75506;SDS011;64086;43.220;27.878;2023-11-19T01:44:26;4.50;;;2.42;;
75506;SDS011;64086;43.220;27.878;2023-11-19T01:46:51;5.40;;;2.70;;
75506;SDS011;64086;43.220;27.878;2023-11-19T01:49:17;4.22;;;2.20;;
75506;SDS011;64086;43.220;27.878;2023-11-19T01:51:44;4.18;;;2.15;;
75506;SDS011;64086;43.220;27.878;2023-11-19T01:54:09;4.20;;;2.45;;
75506;SDS011;64086;43.220;27.878;2023-11-19T01:56:36;4.38;;;2.30;;
75506;SDS011;64086;43.220;27.878;2023-11-19T01:59:02;3.75;;;2.10;;
75506;SDS011;64086;43.220;27.878;2023-11-19T02:01:28;4.82;;;2.55;;
75506;SDS011;64086;43.220;27.878;2023-11-19T02:03:55;4.35;;;2.50;;
75506;SDS011;64086;43.220;27.878;2023-11-19T02:06:20;5.47;;;2.80;;
75506;SDS011;64086;43.220;27.878;2023-11-19T02:08:46;4.13;;;2.30;;
75506;SDS011;64086;43.220;27.878;2023-11-19T02:11:11;4.47;;;2.75;;
75506;SDS011;64086;43.220;27.878;2023-11-19T02:13:37;4.75;;;2.78;;
75506;SDS011;64086;43.220;27.878;2023-11-19T02:16:03;4.53;;;2.40;;
75506;SDS011;64086;43.220;27.878;2023-11-19T02:18:29;4.57;;;2.67;;
75506;SDS011;64086;43.220;27.878;2023-11-19T02:20:55;4.00;;;2.42;;
75506;SDS011;64086;43.220;27.878;2023-11-19T02:23:21;4.40;;;2.17;;
75506;SDS011;64086;43.220;27.878;2023-11-19T02:25:49;5.60;;;2.70;;
75506;SDS011;64086;43.220;27.878;2023-11-19T02:28:31;4.13;;;2.20;;
75506;SDS011;64086;43.220;27.878;2023-11-19T02:30:58;4.50;;;2.55;;
75506;SDS011;64086;43.220;27.878;2023-11-19T02:33:23;4.30;;;2.13;;
75506;SDS011;64086;43.220;27.878;2023-11-19T02:35:49;4.38;;;2.28;;
75506;SDS011;64086;43.220;27.878;2023-11-19T02:38:16;4.03;;;2.00;;
75506;SDS011;64086;43.220;27.878;2023-11-19T02:40:41;4.85;;;2.88;;
75506;SDS011;64086;43.220;27.878;2023-11-19T02:43:07;6.30;;;3.45;;
75506;SDS011;64086;43.220;27.878;2023-11-19T02:45:33;4.95;;;2.90;;
75506;SDS011;64086;43.220;27.878;2023-11-19T02:47:59;5.80;;;3.25;;
75506;SDS011;64086;43.220;27.878;2023-11-19T02:50:28;4.70;;;2.63;;
75506;SDS011;64086;43.220;27.878;2023-11-19T02:52:54;6.38;;;3.13;;
75506;SDS011;64086;43.220;27.878;2023-11-19T02:55:23;6.18;;;3.40;;
75506;SDS011;64086;43.220;27.878;2023-11-19T02:57:50;5.15;;;3.10;;
75506;SDS011;64086;43.220;27.878;2023-11-19T03:00:18;6.35;;;3.67;;
75506;SDS011;64086;43.220;27.878;2023-11-19T03:02:48;6.78;;;3.58;;
75506;SDS011;64086;43.220;27.878;2023-11-19T03:05:23;6.32;;;3.67;;
75506;SDS011;64086;43.220;27.878;2023-11-19T03:07:49;6.57;;;4.10;;
75506;SDS011;64086;43.220;27.878;2023-11-19T03:10:15;7.43;;;3.85;;
75506;SDS011;64086;43.220;27.878;2023-11-19T03:12:40;7.47;;;4.40;;
75506;SDS011;64086;43.220;27.878;2023-11-19T03:15:06;7.22;;;4.68;;
75506;SDS011;64086;43.220;27.878;2023-11-19T03:17:35;9.32;;;4.85;;
75506;SDS011;64086;43.220;27.878;2023-11-19T03:20:01;7.90;;;4.97;;
75506;SDS011;64086;43.220;27.878;2023-11-19T03:22:27;8.52;;;5.32;;
75506;SDS011;64086;43.220;27.878;2023-11-19T03:24:53;10.73;;;5.45;;
75506;SDS011;64086;43.220;27.878;2023-11-19T03:27:18;9.55;;;5.80;;
75506;SDS011;64086;43.220;27.878;2023-11-19T03:29:44;9.18;;;5.78;;
75506;SDS011;64086;43.220;27.878;2023-11-19T03:32:09;8.52;;;5.55;;
75506;SDS011;64086;43.220;27.878;2023-11-19T03:34:35;9.30;;;5.78;;
75506;SDS011;64086;43.220;27.878;2023-11-19T03:37:00;8.60;;;5.75;;
75506;SDS011;64086;43.220;27.878;2023-11-19T03:39:25;10.75;;;6.60;;
75506;SDS011;64086;43.220;27.878;2023-11-19T03:41:52;10.30;;;6.22;;
75506;SDS011;64086;43.220;27.878;2023-11-19T03:44:17;9.10;;;5.45;;
75506;SDS011;64086;43.220;27.878;2023-11-19T03:46:44;10.38;;;5.93;;
75506;SDS011;64086;43.220;27.878;2023-11-19T03:49:09;11.15;;;6.90;;
75506;SDS011;64086;43.220;27.878;2023-11-19T03:51:35;10.60;;;6.00;;
75506;SDS011;64086;43.220;27.878;2023-11-19T03:54:00;10.30;;;6.75;;
75506;SDS011;64086;43.220;27.878;2023-11-19T03:56:26;13.10;;;7.63;;
75506;SDS011;64086;43.220;27.878;2023-11-19T03:58:52;11.57;;;6.50;;
75506;SDS011;64086;43.220;27.878;2023-11-19T04:01:17;11.75;;;7.32;;
75506;SDS011;64086;43.220;27.878;2023-11-19T04:03:43;10.13;;;6.88;;
75506;SDS011;64086;43.220;27.878;2023-11-19T04:06:09;10.27;;;6.45;;
75506;SDS011;64086;43.220;27.878;2023-11-19T04:08:34;11.05;;;5.85;;
75506;SDS011;64086;43.220;27.878;2023-11-19T04:11:01;10.32;;;6.60;;
75506;SDS011;64086;43.220;27.878;2023-11-19T04:13:28;9.57;;;6.57;;
75506;SDS011;64086;43.220;27.878;2023-11-19T04:15:54;10.60;;;6.95;;
75506;SDS011;64086;43.220;27.878;2023-11-19T04:18:19;10.98;;;6.97;;
75506;SDS011;64086;43.220;27.878;2023-11-19T04:20:44;8.32;;;6.43;;
75506;SDS011;64086;43.220;27.878;2023-11-19T04:23:10;12.40;;;6.85;;
75506;SDS011;64086;43.220;27.878;2023-11-19T04:25:36;11.65;;;7.55;;
75506;SDS011;64086;43.220;27.878;2023-11-19T04:28:02;11.65;;;6.55;;
75506;SDS011;64086;43.220;27.878;2023-11-19T04:30:27;11.60;;;7.20;;
75506;SDS011;64086;43.220;27.878;2023-11-19T04:32:53;8.75;;;6.45;;
75506;SDS011;64086;43.220;27.878;2023-11-19T04:35:19;10.23;;;6.35;;
75506;SDS011;64086;43.220;27.878;2023-11-19T04:37:44;10.95;;;7.10;;
75506;SDS011;64086;43.220;27.878;2023-11-19T04:40:10;11.05;;;6.90;;
75506;SDS011;64086;43.220;27.878;2023-11-19T04:42:37;12.18;;;6.82;;
75506;SDS011;64086;43.220;27.878;2023-11-19T04:45:05;10.68;;;7.00;;
75506;SDS011;64086;43.220;27.878;2023-11-19T04:47:32;11.57;;;8.20;;
75506;SDS011;64086;43.220;27.878;2023-11-19T04:50:00;10.10;;;6.78;;
75506;SDS011;64086;43.220;27.878;2023-11-19T04:52:26;9.73;;;6.57;;
75506;SDS011;64086;43.220;27.878;2023-11-19T04:54:51;11.07;;;6.55;;
75506;SDS011;64086;43.220;27.878;2023-11-19T04:57:17;10.23;;;6.85;;
75506;SDS011;64086;43.220;27.878;2023-11-19T04:59:43;10.80;;;7.53;;
75506;SDS011;64086;43.220;27.878;2023-11-19T05:02:08;10.93;;;7.25;;
75506;SDS011;64086;43.220;27.878;2023-11-19T05:04:34;9.85;;;6.72;;
75506;SDS011;64086;43.220;27.878;2023-11-19T05:07:00;9.73;;;6.95;;
75506;SDS011;64086;43.220;27.878;2023-11-19T05:09:25;11.77;;;7.40;;
75506;SDS011;64086;43.220;27.878;2023-11-19T05:11:51;12.30;;;7.70;;
75506;SDS011;64086;43.220;27.878;2023-11-19T05:14:16;9.73;;;6.82;;
75506;SDS011;64086;43.220;27.878;2023-11-19T05:16:43;10.77;;;6.78;;
75506;SDS011;64086;43.220;27.878;2023-11-19T05:19:09;11.73;;;7.97;;
75506;SDS011;64086;43.220;27.878;2023-11-19T05:21:34;11.02;;;7.00;;
75506;SDS011;64086;43.220;27.878;2023-11-19T05:24:01;11.10;;;7.55;;
75506;SDS011;64086;43.220;27.878;2023-11-19T05:26:29;11.90;;;7.70;;
75506;SDS011;64086;43.220;27.878;2023-11-19T05:28:55;10.93;;;7.50;;
75506;SDS011;64086;43.220;27.878;2023-11-19T05:31:20;12.23;;;6.70;;
75506;SDS011;64086;43.220;27.878;2023-11-19T05:33:46;11.75;;;7.40;;
75506;SDS011;64086;43.220;27.878;2023-11-19T05:36:12;9.90;;;6.78;;
75506;SDS011;64086;43.220;27.878;2023-11-19T05:38:37;10.00;;;6.53;;
75506;SDS011;64086;43.220;27.878;2023-11-19T05:41:03;9.73;;;6.38;;
75506;SDS011;64086;43.220;27.878;2023-11-19T05:43:30;10.70;;;6.20;;
75506;SDS011;64086;43.220;27.878;2023-11-19T05:45:55;9.88;;;6.07;;
75506;SDS011;64086;43.220;27.878;2023-11-19T05:48:21;10.35;;;6.78;;
75506;SDS011;64086;43.220;27.878;2023-11-19T05:50:46;9.68;;;6.40;;
75506;SDS011;64086;43.220;27.878;2023-11-19T05:53:14;11.43;;;6.45;;
75506;SDS011;64086;43.220;27.878;2023-11-19T05:55:40;9.73;;;6.18;;
75506;SDS011;64086;43.220;27.878;2023-11-19T05:58:13;11.50;;;6.85;;
75506;SDS011;64086;43.220;27.878;2023-11-19T06:00:39;8.43;;;5.55;;
75506;SDS011;64086;43.220;27.878;2023-11-19T06:03:05;10.27;;;6.30;;
75506;SDS011;64086;43.220;27.878;2023-11-19T06:05:32;8.75;;;6.32;;
75506;SDS011;64086;43.220;27.878;2023-11-19T06:07:58;8.48;;;6.03;;
75506;SDS011;64086;43.220;27.878;2023-11-19T06:10:23;9.98;;;6.03;;
75506;SDS011;64086;43.220;27.878;2023-11-19T06:12:55;10.27;;;5.82;;
75506;SDS011;64086;43.220;27.878;2023-11-19T06:15:24;8.63;;;5.78;;
75506;SDS011;64086;43.220;27.878;2023-11-19T06:17:53;9.30;;;5.88;;
75506;SDS011;64086;43.220;27.878;2023-11-19T06:20:18;8.32;;;5.65;;
75506;SDS011;64086;43.220;27.878;2023-11-19T06:22:45;8.52;;;5.45;;
75506;SDS011;64086;43.220;27.878;2023-11-19T06:25:11;9.90;;;5.97;;
75506;SDS011;64086;43.220;27.878;2023-11-19T06:27:36;9.30;;;5.60;;
75506;SDS011;64086;43.220;27.878;2023-11-19T06:30:02;8.40;;;5.45;;
75506;SDS011;64086;43.220;27.878;2023-11-19T06:32:27;9.73;;;6.55;;
75506;SDS011;64086;43.220;27.878;2023-11-19T06:34:54;8.20;;;5.90;;
75506;SDS011;64086;43.220;27.878;2023-11-19T06:37:19;6.72;;;5.20;;
75506;SDS011;64086;43.220;27.878;2023-11-19T06:39:45;8.55;;;5.50;;
75506;SDS011;64086;43.220;27.878;2023-11-19T06:42:10;8.20;;;5.85;;
75506;SDS011;64086;43.220;27.878;2023-11-19T06:44:36;7.97;;;5.75;;
75506;SDS011;64086;43.220;27.878;2023-11-19T06:47:01;7.90;;;5.15;;
75506;SDS011;64086;43.220;27.878;2023-11-19T06:49:27;7.93;;;5.40;;
75506;SDS011;64086;43.220;27.878;2023-11-19T06:51:53;7.15;;;4.88;;
75506;SDS011;64086;43.220;27.878;2023-11-19T06:54:18;7.40;;;5.72;;
75506;SDS011;64086;43.220;27.878;2023-11-19T06:56:44;7.47;;;5.18;;
75506;SDS011;64086;43.220;27.878;2023-11-19T06:59:09;9.48;;;6.00;;
75506;SDS011;64086;43.220;27.878;2023-11-19T07:01:35;8.73;;;6.15;;
75506;SDS011;64086;43.220;27.878;2023-11-19T07:04:01;8.98;;;5.70;;
75506;SDS011;64086;43.220;27.878;2023-11-19T07:06:33;8.48;;;5.90;;
75506;SDS011;64086;43.220;27.878;2023-11-19T07:08:59;9.15;;;5.65;;
75506;SDS011;64086;43.220;27.878;2023-11-19T07:11:25;9.30;;;5.75;;
75506;SDS011;64086;43.220;27.878;2023-11-19T07:13:50;9.30;;;6.30;;
75506;SDS011;64086;43.220;27.878;2023-11-19T07:16:15;8.70;;;5.88;;
75506;SDS011;64086;43.220;27.878;2023-11-19T07:18:41;10.23;;;6.65;;
75506;SDS011;64086;43.220;27.878;2023-11-19T07:21:08;10.32;;;7.13;;
75506;SDS011;64086;43.220;27.878;2023-11-19T07:23:35;10.38;;;6.55;;
75506;SDS011;64086;43.220;27.878;2023-11-19T07:26:01;10.30;;;6.50;;
75506;SDS011;64086;43.220;27.878;2023-11-19T07:28:29;9.80;;;6.35;;
75506;SDS011;64086;43.220;27.878;2023-11-19T07:30:54;11.35;;;7.45;;
75506;SDS011;64086;43.220;27.878;2023-11-19T07:33:21;9.32;;;6.65;;
75506;SDS011;64086;43.220;27.878;2023-11-19T07:35:46;8.40;;;6.28;;
75506;SDS011;64086;43.220;27.878;2023-11-19T07:38:12;8.38;;;6.18;;
75506;SDS011;64086;43.220;27.878;2023-11-19T07:40:37;10.80;;;6.72;;
75506;SDS011;64086;43.220;27.878;2023-11-19T07:43:03;8.75;;;6.82;;
75506;SDS011;64086;43.220;27.878;2023-11-19T07:45:28;9.25;;;6.47;;
75506;SDS011;64086;43.220;27.878;2023-11-19T07:47:54;11.23;;;7.07;;
75506;SDS011;64086;43.220;27.878;2023-11-19T07:50:19;9.38;;;6.40;;
75506;SDS011;64086;43.220;27.878;2023-11-19T07:52:45;10.35;;;6.13;;
75506;SDS011;64086;43.220;27.878;2023-11-19T07:55:11;7.72;;;5.60;;
75506;SDS011;64086;43.220;27.878;2023-11-19T07:57:37;10.18;;;6.15;;
75506;SDS011;64086;43.220;27.878;2023-11-19T08:00:02;9.57;;;6.43;;
75506;SDS011;64086;43.220;27.878;2023-11-19T08:02:29;9.32;;;6.25;;
75506;SDS011;64086;43.220;27.878;2023-11-19T08:04:54;10.05;;;6.07;;
75506;SDS011;64086;43.220;27.878;2023-11-19T08:07:20;10.48;;;7.10;;
75506;SDS011;64086;43.220;27.878;2023-11-19T08:09:47;10.95;;;6.40;;
75506;SDS011;64086;43.220;27.878;2023-11-19T08:12:12;11.05;;;7.43;;
75506;SDS011;64086;43.220;27.878;2023-11-19T08:14:40;9.38;;;6.95;;
75506;SDS011;64086;43.220;27.878;2023-11-19T08:17:06;8.80;;;5.85;;
75506;SDS011;64086;43.220;27.878;2023-11-19T08:19:31;12.20;;;7.15;;
75506;SDS011;64086;43.220;27.878;2023-11-19T08:21:57;9.77;;;6.75;;
75506;SDS011;64086;43.220;27.878;2023-11-19T08:24:23;10.20;;;6.57;;
75506;SDS011;64086;43.220;27.878;2023-11-19T08:26:48;9.75;;;7.55;;
75506;SDS011;64086;43.220;27.878;2023-11-19T08:29:14;8.80;;;6.57;;
75506;SDS011;64086;43.220;27.878;2023-11-19T08:31:39;10.68;;;7.45;;
75506;SDS011;64086;43.220;27.878;2023-11-19T08:34:05;10.70;;;6.90;;
75506;SDS011;64086;43.220;27.878;2023-11-19T08:36:34;9.05;;;6.22;;
75506;SDS011;64086;43.220;27.878;2023-11-19T08:38:59;9.52;;;6.30;;
75506;SDS011;64086;43.220;27.878;2023-11-19T08:41:25;9.80;;;7.05;;
75506;SDS011;64086;43.220;27.878;2023-11-19T08:43:50;8.50;;;6.15;;
75506;SDS011;64086;43.220;27.878;2023-11-19T08:46:16;9.60;;;6.30;;
75506;SDS011;64086;43.220;27.878;2023-11-19T08:48:42;8.45;;;5.75;;
75506;SDS011;64086;43.220;27.878;2023-11-19T08:51:07;10.80;;;6.72;;
75506;SDS011;64086;43.220;27.878;2023-11-19T08:53:33;9.75;;;6.30;;
75506;SDS011;64086;43.220;27.878;2023-11-19T08:55:59;9.13;;;6.55;;
75506;SDS011;64086;43.220;27.878;2023-11-19T08:58:25;9.25;;;6.57;;
75506;SDS011;64086;43.220;27.878;2023-11-19T09:00:51;9.32;;;5.78;;
75506;SDS011;64086;43.220;27.878;2023-11-19T09:03:16;9.20;;;6.72;;
75506;SDS011;64086;43.220;27.878;2023-11-19T09:05:42;8.00;;;6.13;;
75506;SDS011;64086;43.220;27.878;2023-11-19T09:08:07;9.55;;;6.47;;
75506;SDS011;64086;43.220;27.878;2023-11-19T09:10:33;8.95;;;6.13;;
75506;SDS011;64086;43.220;27.878;2023-11-19T09:12:59;10.43;;;6.68;;
75506;SDS011;64086;43.220;27.878;2023-11-19T09:15:24;9.85;;;6.10;;
75506;SDS011;64086;43.220;27.878;2023-11-19T09:17:50;10.48;;;6.88;;
75506;SDS011;64086;43.220;27.878;2023-11-19T09:20:15;9.77;;;6.32;;
75506;SDS011;64086;43.220;27.878;2023-11-19T09:22:41;10.35;;;6.72;;
75506;SDS011;64086;43.220;27.878;2023-11-19T09:25:07;9.63;;;6.20;;
75506;SDS011;64086;43.220;27.878;2023-11-19T09:27:33;9.85;;;7.15;;
75506;SDS011;64086;43.220;27.878;2023-11-19T09:29:58;9.55;;;6.90;;
75506;SDS011;64086;43.220;27.878;2023-11-19T09:32:24;9.85;;;6.43;;
75506;SDS011;64086;43.220;27.878;2023-11-19T09:34:50;9.45;;;6.70;;
75506;SDS011;64086;43.220;27.878;2023-11-19T09:37:16;10.18;;;6.40;;
75506;SDS011;64086;43.220;27.878;2023-11-19T09:39:41;9.32;;;6.28;;
75506;SDS011;64086;43.220;27.878;2023-11-19T09:42:10;9.93;;;6.45;;
75506;SDS011;64086;43.220;27.878;2023-11-19T09:44:37;9.27;;;6.72;;
75506;SDS011;64086;43.220;27.878;2023-11-19T09:47:03;9.10;;;5.82;;
75506;SDS011;64086;43.220;27.878;2023-11-19T09:49:29;9.15;;;5.85;;
75506;SDS011;64086;43.220;27.878;2023-11-19T09:51:55;9.68;;;6.38;;
75506;SDS011;64086;43.220;27.878;2023-11-19T09:54:21;9.05;;;6.35;;
75506;SDS011;64086;43.220;27.878;2023-11-19T09:56:46;11.68;;;6.78;;
75506;SDS011;64086;43.220;27.878;2023-11-19T09:59:13;9.32;;;6.63;;
75506;SDS011;64086;43.220;27.878;2023-11-19T10:01:38;13.15;;;6.32;;
75506;SDS011;64086;43.220;27.878;2023-11-19T10:04:04;10.05;;;6.85;;
75506;SDS011;64086;43.220;27.878;2023-11-19T10:06:31;9.73;;;6.72;;
75506;SDS011;64086;43.220;27.878;2023-11-19T10:08:57;10.45;;;7.07;;
75506;SDS011;64086;43.220;27.878;2023-11-19T10:11:24;9.50;;;7.18;;
75506;SDS011;64086;43.220;27.878;2023-11-19T10:13:49;9.85;;;7.20;;
75506;SDS011;64086;43.220;27.878;2023-11-19T10:16:17;10.85;;;7.00;;
75506;SDS011;64086;43.220;27.878;2023-11-19T10:18:47;10.98;;;6.90;;
75506;SDS011;64086;43.220;27.878;2023-11-19T10:21:14;8.95;;;6.72;;
75506;SDS011;64086;43.220;27.878;2023-11-19T10:23:55;9.63;;;6.72;;
75506;SDS011;64086;43.220;27.878;2023-11-19T10:26:25;9.27;;;6.22;;
75506;SDS011;64086;43.220;27.878;2023-11-19T10:28:52;10.68;;;6.80;;
75506;SDS011;64086;43.220;27.878;2023-11-19T10:31:18;9.88;;;7.47;;
75506;SDS011;64086;43.220;27.878;2023-11-19T10:33:45;10.02;;;7.10;;
75506;SDS011;64086;43.220;27.878;2023-11-19T10:36:12;8.48;;;6.22;;
75506;SDS011;64086;43.220;27.878;2023-11-19T10:38:38;8.57;;;6.28;;
75506;SDS011;64086;43.220;27.878;2023-11-19T10:41:05;8.13;;;5.72;;
75506;SDS011;64086;43.220;27.878;2023-11-19T10:43:41;9.93;;;6.57;;
75506;SDS011;64086;43.220;27.878;2023-11-19T10:46:13;9.65;;;6.53;;
75506;SDS011;64086;43.220;27.878;2023-11-19T10:48:39;9.48;;;6.13;;
75506;SDS011;64086;43.220;27.878;2023-11-19T10:51:05;7.78;;;5.47;;
75506;SDS011;64086;43.220;27.878;2023-11-19T10:53:37;7.40;;;5.38;;
75506;SDS011;64086;43.220;27.878;2023-11-19T10:56:06;8.60;;;5.50;;
75506;SDS011;64086;43.220;27.878;2023-11-19T10:58:35;9.88;;;6.15;;
75506;SDS011;64086;43.220;27.878;2023-11-19T11:01:07;7.65;;;5.65;;
75506;SDS011;64086;43.220;27.878;2023-11-19T11:03:39;9.50;;;5.78;;
75506;SDS011;64086;43.220;27.878;2023-11-19T11:06:05;7.53;;;5.53;;
75506;SDS011;64086;43.220;27.878;2023-11-19T11:08:31;8.02;;;6.13;;
75506;SDS011;64086;43.220;27.878;2023-11-19T11:10:56;8.70;;;6.13;;
75506;SDS011;64086;43.220;27.878;2023-11-19T11:13:26;8.60;;;5.90;;
75506;SDS011;64086;43.220;27.878;2023-11-19T11:15:56;7.90;;;4.88;;
75506;SDS011;64086;43.220;27.878;2023-11-19T11:18:25;11.13;;;6.38;;
75506;SDS011;64086;43.220;27.878;2023-11-19T11:20:52;8.73;;;5.85;;
75506;SDS011;64086;43.220;27.878;2023-11-19T11:23:57;7.93;;;5.50;;
75506;SDS011;64086;43.220;27.878;2023-11-19T11:29:37;8.55;;;5.82;;
75506;SDS011;64086;43.220;27.878;2023-11-19T11:35:04;8.65;;;5.60;;
75506;SDS011;64086;43.220;27.878;2023-11-19T11:37:37;8.38;;;6.00;;
75506;SDS011;64086;43.220;27.878;2023-11-19T11:40:08;9.30;;;6.22;;
75506;SDS011;64086;43.220;27.878;2023-11-19T11:42:40;9.98;;;6.88;;
75506;SDS011;64086;43.220;27.878;2023-11-19T11:45:16;8.98;;;6.55;;
75506;SDS011;64086;43.220;27.878;2023-11-19T11:50:11;8.48;;;6.22;;
75506;SDS011;64086;43.220;27.878;2023-11-19T11:55:24;9.95;;;7.32;;
75506;SDS011;64086;43.220;27.878;2023-11-19T11:58:02;8.88;;;6.75;;
75506;SDS011;64086;43.220;27.878;2023-11-19T12:03:01;11.07;;;7.57;;
75506;SDS011;64086;43.220;27.878;2023-11-19T12:05:27;12.23;;;7.73;;
75506;SDS011;64086;43.220;27.878;2023-11-19T12:07:56;10.73;;;7.35;;
75506;SDS011;64086;43.220;27.878;2023-11-19T12:10:25;10.43;;;6.63;;
75506;SDS011;64086;43.220;27.878;2023-11-19T12:12:57;9.98;;;7.13;;
75506;SDS011;64086;43.220;27.878;2023-11-19T12:15:24;9.90;;;7.25;;
75506;SDS011;64086;43.220;27.878;2023-11-19T12:17:52;10.75;;;7.10;;
75506;SDS011;64086;43.220;27.878;2023-11-19T12:20:18;11.15;;;7.47;;
75506;SDS011;64086;43.220;27.878;2023-11-19T12:22:45;9.57;;;7.35;;
75506;SDS011;64086;43.220;27.878;2023-11-19T12:25:11;10.70;;;7.07;;
75506;SDS011;64086;43.220;27.878;2023-11-19T12:27:41;10.85;;;7.68;;
75506;SDS011;64086;43.220;27.878;2023-11-19T12:30:08;11.90;;;8.15;;
75506;SDS011;64086;43.220;27.878;2023-11-19T12:32:37;10.75;;;7.55;;
75506;SDS011;64086;43.220;27.878;2023-11-19T12:35:07;11.75;;;8.25;;
75506;SDS011;64086;43.220;27.878;2023-11-19T12:37:43;10.85;;;8.13;;
75506;SDS011;64086;43.220;27.878;2023-11-19T12:40:19;12.13;;;7.95;;
75506;SDS011;64086;43.220;27.878;2023-11-19T12:42:50;11.80;;;7.97;;
75506;SDS011;64086;43.220;27.878;2023-11-19T12:45:19;12.90;;;8.38;;
75506;SDS011;64086;43.220;27.878;2023-11-19T12:47:46;11.52;;;8.55;;
75506;SDS011;64086;43.220;27.878;2023-11-19T12:50:17;11.27;;;8.20;;
75506;SDS011;64086;43.220;27.878;2023-11-19T12:52:55;11.48;;;7.82;;
75506;SDS011;64086;43.220;27.878;2023-11-19T12:55:28;12.88;;;9.18;;
75506;SDS011;64086;43.220;27.878;2023-11-19T12:57:54;10.43;;;7.53;;
75506;SDS011;64086;43.220;27.878;2023-11-19T13:00:21;13.48;;;9.02;;
75506;SDS011;64086;43.220;27.878;2023-11-19T13:02:52;11.43;;;8.05;;
75506;SDS011;64086;43.220;27.878;2023-11-19T13:08:03;11.18;;;8.43;;
75506;SDS011;64086;43.220;27.878;2023-11-19T13:10:51;13.80;;;8.20;;
75506;SDS011;64086;43.220;27.878;2023-11-19T13:13:17;12.30;;;8.65;;
75506;SDS011;64086;43.220;27.878;2023-11-19T13:15:42;12.70;;;8.48;;
75506;SDS011;64086;43.220;27.878;2023-11-19T13:18:10;11.73;;;7.85;;
75506;SDS011;64086;43.220;27.878;2023-11-19T13:20:35;11.07;;;7.95;;
75506;SDS011;64086;43.220;27.878;2023-11-19T13:23:01;11.30;;;8.38;;
75506;SDS011;64086;43.220;27.878;2023-11-19T13:25:29;13.70;;;8.70;;
75506;SDS011;64086;43.220;27.878;2023-11-19T13:27:55;12.73;;;8.77;;
75506;SDS011;64086;43.220;27.878;2023-11-19T13:30:21;11.35;;;8.35;;
75506;SDS011;64086;43.220;27.878;2023-11-19T13:32:47;14.55;;;8.25;;
75506;SDS011;64086;43.220;27.878;2023-11-19T13:35:13;11.48;;;8.07;;
75506;SDS011;64086;43.220;27.878;2023-11-19T13:37:39;13.45;;;8.00;;
75506;SDS011;64086;43.220;27.878;2023-11-19T13:40:06;12.30;;;8.75;;
75506;SDS011;64086;43.220;27.878;2023-11-19T13:42:32;11.63;;;8.43;;
75506;SDS011;64086;43.220;27.878;2023-11-19T13:44:58;11.52;;;8.90;;
75506;SDS011;64086;43.220;27.878;2023-11-19T13:47:23;13.13;;;8.65;;
75506;SDS011;64086;43.220;27.878;2023-11-19T13:49:51;12.15;;;8.60;;
75506;SDS011;64086;43.220;27.878;2023-11-19T13:52:17;12.23;;;8.32;;
75506;SDS011;64086;43.220;27.878;2023-11-19T13:54:43;13.32;;;9.05;;
75506;SDS011;64086;43.220;27.878;2023-11-19T13:57:08;11.60;;;8.38;;
75506;SDS011;64086;43.220;27.878;2023-11-19T13:59:34;12.27;;;8.52;;
75506;SDS011;64086;43.220;27.878;2023-11-19T14:02:05;13.98;;;9.00;;
75506;SDS011;64086;43.220;27.878;2023-11-19T14:04:32;12.02;;;8.48;;
75506;SDS011;64086;43.220;27.878;2023-11-19T14:06:58;12.23;;;8.43;;
75506;SDS011;64086;43.220;27.878;2023-11-19T14:09:25;11.60;;;8.20;;
75506;SDS011;64086;43.220;27.878;2023-11-19T14:11:51;13.75;;;8.93;;
75506;SDS011;64086;43.220;27.878;2023-11-19T14:14:16;12.43;;;8.40;;
75506;SDS011;64086;43.220;27.878;2023-11-19T14:16:42;11.73;;;8.10;;
75506;SDS011;64086;43.220;27.878;2023-11-19T14:19:07;11.90;;;8.45;;
75506;SDS011;64086;43.220;27.878;2023-11-19T14:21:33;12.32;;;7.93;;
75506;SDS011;64086;43.220;27.878;2023-11-19T14:23:58;12.05;;;8.52;;
75506;SDS011;64086;43.220;27.878;2023-11-19T14:26:24;12.95;;;8.60;;
75506;SDS011;64086;43.220;27.878;2023-11-19T14:28:49;13.15;;;8.95;;
75506;SDS011;64086;43.220;27.878;2023-11-19T14:31:14;13.13;;;8.88;;
75506;SDS011;64086;43.220;27.878;2023-11-19T14:33:40;12.68;;;8.93;;
75506;SDS011;64086;43.220;27.878;2023-11-19T14:36:06;11.95;;;8.45;;
75506;SDS011;64086;43.220;27.878;2023-11-19T14:38:32;13.13;;;8.95;;
75506;SDS011;64086;43.220;27.878;2023-11-19T14:40:58;14.25;;;8.98;;
75506;SDS011;64086;43.220;27.878;2023-11-19T14:43:24;12.43;;;9.07;;